Time;durP1;ratioP1;P1;durP2;ratioP2;P2;SDS_P1;SDS_P2;PMS_P1;PMS_P2;Temp;Humidity;BMP_temperature;BMP_pressure;BME280_temperature;BME280_humidity;BME280_pressure;Samples;Min_cycle;Max_cycle;Signal;HPM_P1;HPM_P2
2021/03/05 06:02:48;;;;;;;11.70;8.48;;;;;;;9.74;42.16;94664.34;5157349;24;20140;-82
2021/03/05 06:05:14;;;;;;;10.23;7.68;;;;;;;10.02;41.23;94696.47;4836297;29;20323;-85
2021/03/05 06:07:42;;;;;;;9.80;8.32;;;;;;;11.10;38.04;94692.53;4839299;29;20071;-86
2021/03/05 06:10:08;;;;;;;9.95;8.95;;;;;;;14.21;34.80;94743.00;4854104;29;20034;-85
2021/03/05 06:12:33;;;;;;;14.57;11.00;;;;;;;13.17;35.81;94741.63;4854120;29;20044;-86
2021/03/05 06:14:59;;;;;;;21.80;19.60;;;;;;;14.14;34.28;94742.19;4838781;29;20037;-87
2021/03/05 06:17:46;;;;;;;17.83;15.93;;;;;;;16.34;31.28;94728.28;4837758;29;20057;-87
2021/03/05 06:20:11;;;;;;;18.73;16.80;;;;;;;16.79;30.11;94731.59;4823531;29;20029;-86
2021/03/05 06:22:37;;;;;;;14.55;13.02;;;;;;;18.33;28.11;94739.97;4852434;29;20403;-83
2021/03/05 06:25:04;;;;;;;15.27;10.60;;;;;;;16.73;30.30;94730.63;4843531;29;20033;-83
2021/03/05 06:27:30;;;;;;;13.45;10.27;;;;;;;20.21;26.01;94736.03;4823719;29;20543;-82
2021/03/05 06:29:55;;;;;;;29.50;11.82;;;;;;;21.06;24.86;94737.75;4837928;29;20037;-82
2021/03/05 06:32:33;;;;;;;15.20;9.80;;;;;;;19.39;25.05;94732.78;4825541;29;20033;-82
2021/03/05 06:34:59;;;;;;;12.10;8.50;;;;;;;18.19;26.84;94735.91;4825956;29;20084;-82
2021/03/05 06:37:25;;;;;;;17.95;8.70;;;;;;;22.34;23.34;94735.50;4857070;29;20033;-82
2021/03/05 06:40:03;;;;;;;18.83;9.65;;;;;;;21.84;23.28;94725.13;4839620;29;20542;-82
2021/03/05 06:42:28;;;;;;;23.08;16.88;;;;;;;23.72;22.14;94727.59;4841007;29;20033;-81
2021/03/05 06:44:54;;;;;;;55.00;47.55;;;;;;;23.27;22.36;94726.25;4822418;29;20617;-80
2021/03/05 06:47:20;;;;;;;141.15;108.82;;;;;;;20.16;26.03;94741.22;4837364;29;20029;-81
2021/03/05 06:49:48;;;;;;;68.88;52.35;;;;;;;23.03;23.26;94728.47;4838776;29;20033;-80
2021/03/05 06:52:18;;;;;;;65.55;46.47;;;;;;;22.39;22.50;94735.53;4829326;29;20036;-80
2021/03/05 06:54:43;;;;;;;24.70;20.98;;;;;;;22.63;22.94;94735.22;4844284;29;20033;-80
2021/03/05 06:57:10;;;;;;;13.18;9.80;;;;;;;16.54;29.79;94728.94;4835040;29;20499;-80
2021/03/05 06:59:43;;;;;;;10.80;9.80;;;;;;;18.22;28.28;94731.03;4836334;29;20073;-79
2021/03/05 07:02:14;;;;;;;13.75;11.75;;;;;;;20.30;28.42;94718.84;4844334;29;20089;-78
2021/03/05 07:04:43;;;;;;;17.17;12.70;;;;;;;21.84;26.35;94729.59;4850797;29;20026;-80
2021/03/05 07:07:09;;;;;;;16.40;13.63;;;;;;;20.45;25.50;94727.00;4869055;29;20048;-79
2021/03/05 07:09:42;;;;;;;19.15;14.63;;;;;;;18.86;28.28;94738.16;4838523;29;20025;-81
2021/03/05 07:12:11;;;;;;;13.55;12.25;;;;;;;23.78;24.43;94729.19;4855759;29;20028;-81
2021/03/05 07:14:38;;;;;;;13.50;11.45;;;;;;;20.90;26.28;94718.28;4867822;29;20040;-80
2021/03/05 07:17:04;;;;;;;13.98;11.23;;;;;;;20.03;28.45;94725.72;4871447;29;20033;-79
2021/03/05 07:19:31;;;;;;;12.00;10.88;;;;;;;25.14;23.19;94722.34;4854251;29;20108;-80
2021/03/05 07:21:57;;;;;;;10.18;8.73;;;;;;;24.78;23.32;94727.91;4854530;29;20033;-80
2021/03/05 07:24:27;;;;;;;11.07;10.18;;;;;;;23.85;23.20;94727.13;4855771;29;20112;-80
2021/03/05 07:26:56;;;;;;;10.30;9.40;;;;;;;25.70;22.37;94730.22;4859322;29;20044;-79
2021/03/05 07:29:34;;;;;;;10.77;9.68;;;;;;;26.60;21.67;94736.22;4856176;29;20532;-78
2021/03/05 07:32:07;;;;;;;10.73;9.70;;;;;;;23.98;23.24;94718.72;4874245;29;20045;-80
2021/03/05 07:34:42;;;;;;;12.50;10.13;;;;;;;23.37;24.11;94723.69;4855004;29;20418;-79
2021/03/05 07:37:08;;;;;;;10.82;9.80;;;;;;;26.01;22.24;94723.75;4881081;29;20036;-79
2021/03/05 07:39:39;;;;;;;9.82;8.82;;;;;;;26.38;21.68;94731.31;4864744;29;20444;-79
2021/03/05 07:42:05;;;;;;;10.43;9.50;;;;;;;27.53;19.63;94731.53;4869339;29;20833;-79
2021/03/05 07:44:30;;;;;;;12.10;9.75;;;;;;;26.91;20.06;94729.63;4870990;29;20117;-79
2021/03/05 07:46:57;;;;;;;11.57;10.45;;;;;;;26.17;21.89;94729.81;4841517;29;20521;-79
2021/03/05 07:49:25;;;;;;;12.50;10.82;;;;;;;24.49;22.38;94724.97;4839715;29;20025;-79
2021/03/05 07:51:51;;;;;;;11.57;9.75;;;;;;;20.33;29.79;94721.03;4810381;29;20021;-79
2021/03/05 07:54:39;;;;;;;11.30;9.75;;;;;;;19.66;30.59;94727.84;4842615;29;20043;-79
2021/03/05 07:57:05;;;;;;;12.65;10.02;;;;;;;18.43;31.20;94733.13;4873875;29;20033;-79
2021/03/05 07:59:37;;;;;;;13.13;10.23;;;;;;;18.71;31.14;94724.69;4874511;29;20041;-79
2021/03/05 08:02:03;;;;;;;10.88;9.55;;;;;;;17.90;32.36;94713.91;4873901;29;20045;-78
2021/03/05 08:04:48;;;;;;;11.57;10.20;;;;;;;15.09;36.46;94720.94;4859398;29;20433;-79
2021/03/05 08:07:13;;;;;;;11.82;10.27;;;;;;;16.06;35.84;94706.94;4875771;29;20028;-79
2021/03/05 08:09:39;;;;;;;13.60;11.05;;;;;;;15.62;35.79;94705.16;4873115;29;20586;-79
2021/03/05 08:12:37;;;;;;;11.23;10.05;;;;;;;17.38;33.20;94707.47;4874190;29;20048;-78
2021/03/05 08:15:09;;;;;;;10.02;8.88;;;;;;;17.51;31.78;94701.28;4873994;29;20068;-79
2021/03/05 08:17:38;;;;;;;9.82;8.82;;;;;;;17.69;31.50;94703.91;4875493;29;20582;-78
2021/03/05 08:20:24;;;;;;;13.98;9.15;;;;;;;17.47;32.17;94700.91;4842780;29;20021;-78
2021/03/05 08:22:58;;;;;;;11.35;10.05;;;;;;;17.68;32.56;94712.78;4860856;29;20113;-77
2021/03/05 08:25:25;;;;;;;13.35;10.18;;;;;;;17.94;31.99;94704.59;4875734;29;20132;-78
2021/03/05 08:27:50;;;;;;;11.57;9.30;;;;;;;18.07;30.69;94691.31;4841521;29;20036;-79
2021/03/05 08:30:19;;;;;;;7.72;7.03;;;;;;;18.43;28.70;94696.41;4858791;29;20033;-78
2021/03/05 08:32:51;;;;;;;10.27;8.82;;;;;;;17.81;30.76;94697.72;4857853;29;20063;-77
2021/03/05 08:35:29;;;;;;;9.10;7.43;;;;;;;17.84;27.92;94692.03;4857751;29;20043;-79
2021/03/05 08:38:14;;;;;;;7.03;6.43;;;;;;;18.01;26.33;94686.16;4863580;29;20116;-78
2021/03/05 08:40:47;;;;;;;8.38;6.75;;;;;;;18.76;26.47;94690.69;4867832;29;20025;-78
2021/03/05 08:43:20;;;;;;;9.75;7.68;;;;;;;18.83;27.36;94686.13;4857658;29;20115;-77
2021/03/05 08:45:51;;;;;;;7.88;6.65;;;;;;;18.33;26.80;94683.03;4860984;29;20057;-77
2021/03/05 08:48:39;;;;;;;8.48;6.75;;;;;;;18.99;26.48;94678.56;4876233;29;20033;-76
2021/03/05 08:51:07;;;;;;;10.85;9.57;;;;;;;15.98;31.32;94675.84;4871318;29;20072;-79
2021/03/05 08:53:48;;;;;;;7.55;6.45;;;;;;;17.90;26.92;94680.66;4841001;29;20041;-77
2021/03/05 08:56:33;;;;;;;11.90;9.40;;;;;;;18.78;28.14;94685.22;4858068;29;20029;-75
2021/03/05 08:59:05;;;;;;;11.30;8.60;;;;;;;18.45;27.64;94680.47;4854682;29;20124;-79
2021/03/05 09:01:35;;;;;;;11.07;9.85;;;;;;;17.54;29.04;94674.63;4864042;29;20105;-78
2021/03/05 09:04:15;;;;;;;9.85;8.85;;;;;;;15.81;31.27;94662.50;4853976;29;20052;-77
2021/03/05 09:06:51;;;;;;;16.13;9.63;;;;;;;18.25;29.11;94670.28;4875707;29;20033;-78
2021/03/05 09:09:19;;;;;;;13.35;9.00;;;;;;;19.42;27.15;94658.00;4872711;29;20047;-78
2021/03/05 09:11:44;;;;;;;10.00;7.95;;;;;;;17.67;26.58;94664.84;4856061;29;20116;-78
2021/03/05 09:14:20;;;;;;;10.20;6.85;;;;;;;18.53;25.42;94653.91;4872974;29;20033;-77
2021/03/05 09:17:06;;;;;;;7.40;6.70;;;;;;;17.12;27.25;94637.88;4864688;29;20418;-78
2021/03/05 09:19:47;;;;;;;9.85;7.40;;;;;;;19.34;25.37;94658.31;4851013;29;20139;-77
2021/03/05 09:22:22;;;;;;;9.32;7.35;;;;;;;19.01;24.51;94652.91;4865550;29;20029;-77
2021/03/05 09:24:54;;;;;;;9.70;6.88;;;;;;;19.79;24.99;94650.56;4872660;29;20048;-77
2021/03/05 09:27:21;;;;;;;8.13;6.40;;;;;;;18.93;23.75;94648.81;4871536;29;20506;-77
2021/03/05 09:29:46;;;;;;;6.97;6.28;;;;;;;18.60;25.25;94640.69;4798594;29;20058;-77
2021/03/05 09:32:12;;;;;;;7.13;5.85;;;;;;;18.98;25.28;94651.53;4861947;29;20021;-78
2021/03/05 09:34:57;;;;;;;7.75;6.60;;;;;;;17.53;25.05;94652.13;4840897;29;20492;-78
2021/03/05 09:37:27;;;;;;;7.70;6.40;;;;;;;18.63;25.24;94642.88;4837101;29;20048;-78
2021/03/05 09:39:53;;;;;;;6.07;5.50;;;;;;;20.05;24.02;94647.38;4838719;29;20422;-77
2021/03/05 09:42:42;;;;;;;8.23;5.93;;;;;;;19.95;24.09;94645.34;4886350;29;20029;-77
2021/03/05 09:45:08;;;;;;;9.60;5.85;;;;;;;20.02;23.48;94636.53;4852814;29;20028;-78
2021/03/05 09:47:49;;;;;;;11.48;6.10;;;;;;;19.89;23.09;94641.03;4836393;29;20483;-78
2021/03/05 09:50:21;;;;;;;5.68;5.10;;;;;;;19.96;24.22;94641.72;4853481;29;20092;-78
2021/03/05 09:52:48;;;;;;;6.50;5.88;;;;;;;20.99;21.34;94638.63;4854389;29;20025;-77
2021/03/05 09:55:34;;;;;;;7.90;5.50;;;;;;;21.22;22.10;94629.75;4834098;29;20483;-78
2021/03/05 09:58:11;;;;;;;7.55;5.65;;;;;;;21.59;21.76;94632.56;4866201;29;20112;-78
2021/03/05 10:00:37;;;;;;;10.27;5.57;;;;;;;21.03;21.09;94631.00;4856735;29;20498;-77
2021/03/05 10:03:13;;;;;;;8.18;5.13;;;;;;;21.17;21.90;94619.13;4837427;29;20069;-76
2021/03/05 10:05:39;;;;;;;21.17;6.07;;;;;;;19.70;23.29;94618.63;4857069;29;20037;-77
2021/03/05 10:08:12;;;;;;;5.20;4.80;;;;;;;21.37;22.03;94615.94;4840870;29;20490;-74
2021/03/05 10:10:57;;;;;;;17.27;6.13;;;;;;;19.50;24.70;94612.16;4840732;29;20399;-76
2021/03/05 10:13:38;;;;;;;14.77;5.50;;;;;;;20.58;23.07;94606.69;4856226;29;20081;-77
2021/03/05 10:16:30;;;;;;;9.77;4.65;;;;;;;21.16;21.52;94614.88;4854824;29;20029;-76
2021/03/05 10:19:10;;;;;;;7.47;4.57;;;;;;;20.07;21.90;94605.84;4872773;29;20065;-75
2021/03/05 10:21:41;;;;;;;4.47;4.07;;;;;;;19.49;22.28;94602.72;4872421;29;20411;-77
2021/03/05 10:24:17;;;;;;;12.00;5.35;;;;;;;19.75;22.48;94594.25;4853004;29;20036;-77
2021/03/05 10:29:56;;;;;;;6.13;4.70;;;;;;;17.77;24.94;94604.03;4849401;29;20037;-77
2021/03/05 10:32:25;;;;;;;5.57;4.57;;;;;;;18.06;24.24;94584.88;4852747;29;20041;-77
2021/03/05 10:34:52;;;;;;;5.88;5.07;;;;;;;18.15;23.25;94577.47;4872814;29;20039;-77
2021/03/05 10:37:18;;;;;;;6.28;4.68;;;;;;;19.28;23.43;94580.47;4853009;29;20084;-77
2021/03/05 10:39:44;;;;;;;8.90;5.20;;;;;;;18.33;23.71;94575.53;4858908;29;20144;-77
2021/03/05 10:42:12;;;;;;;7.10;5.53;;;;;;;17.92;24.29;94580.84;4853061;29;20030;-77
2021/03/05 10:44:38;;;;;;;9.38;5.90;;;;;;;18.72;24.54;94568.81;4840571;29;20092;-76
2021/03/05 10:47:07;;;;;;;6.15;5.35;;;;;;;18.97;22.56;94570.41;4854320;29;20499;-76
2021/03/05 10:49:33;;;;;;;;;;;;;;;18.54;24.35;94573.41;4872050;29;20051;-76
2021/03/05 10:51:58;;;;;;;5.22;4.72;;;;;;;18.36;23.79;94564.63;4868776;29;19920;-77
2021/03/05 10:54:24;;;;;;;9.45;5.65;;;;;;;17.83;24.54;94553.38;4821389;29;20044;-75
2021/03/05 10:56:50;;;;;;;11.55;5.20;;;;;;;18.79;25.37;94559.00;4830417;29;20037;-78
2021/03/05 10:59:17;;;;;;;10.43;4.90;;;;;;;19.14;24.23;94547.63;4835685;29;20120;-75
2021/03/05 11:01:47;;;;;;;8.98;5.43;;;;;;;18.73;24.29;94540.75;4854229;29;20612;-77
2021/03/05 11:04:15;;;;;;;8.00;5.88;;;;;;;18.79;24.87;94545.09;4851900;29;20029;-75
2021/03/05 11:06:42;;;;;;;6.85;4.82;;;;;;;19.23;23.94;94527.84;4855605;29;20038;-77
2021/03/05 11:09:08;;;;;;;13.30;5.20;;;;;;;19.33;23.92;94528.03;4856674;29;20048;-77
2021/03/05 11:11:34;;;;;;;8.35;5.00;;;;;;;19.15;23.81;94518.50;4857608;29;20040;-77
2021/03/05 11:14:00;;;;;;;7.45;5.07;;;;;;;18.11;25.77;94521.28;4860154;29;20033;-77
2021/03/05 11:16:25;;;;;;;27.85;5.60;;;;;;;19.14;24.85;94508.22;4873464;29;20056;-76
2021/03/05 11:18:51;;;;;;;6.10;4.80;;;;;;;18.91;24.02;94511.75;4859931;29;20094;-77
2021/03/05 11:21:16;;;;;;;5.97;4.80;;;;;;;18.23;24.88;94507.16;4839924;29;20077;-75
2021/03/05 11:23:43;;;;;;;11.27;7.18;;;;;;;18.67;23.62;94502.31;4843109;29;20435;-76
2021/03/05 11:26:09;;;;;;;7.78;6.22;;;;;;;18.20;24.56;94501.56;4874133;29;20112;-74
2021/03/05 11:28:34;;;;;;;5.75;4.50;;;;;;;18.66;22.68;94496.28;4858240;29;20456;-75
2021/03/05 11:31:00;;;;;;;6.70;4.03;;;;;;;18.62;23.33;94489.88;4858787;29;20037;-76
2021/03/05 11:33:25;;;;;;;5.03;4.53;;;;;;;18.62;23.25;94492.50;4841452;29;20029;-76
2021/03/05 11:35:51;;;;;;;7.05;4.40;;;;;;;18.96;22.63;94475.09;4876239;29;20667;-76
2021/03/05 11:38:16;;;;;;;5.63;4.15;;;;;;;19.24;23.60;94480.34;4857542;29;20033;-75
2021/03/05 11:40:41;;;;;;;4.50;3.95;;;;;;;18.89;22.04;94480.47;4859366;29;20085;-75
2021/03/05 11:43:07;;;;;;;5.40;4.47;;;;;;;19.06;23.23;94480.53;4875260;29;20029;-76
2021/03/05 11:45:32;;;;;;;10.38;4.60;;;;;;;18.72;21.59;94465.72;4874696;29;20029;-76
2021/03/05 11:47:58;;;;;;;4.65;4.22;;;;;;;19.16;23.76;94474.69;4858321;29;20065;-76
2021/03/05 11:50:23;;;;;;;12.18;5.38;;;;;;;18.71;22.23;94467.53;4868082;29;20376;-75
2021/03/05 11:52:49;;;;;;;4.47;3.80;;;;;;;17.66;21.92;94466.75;4870788;29;20112;-75
2021/03/05 11:55:14;;;;;;;7.30;4.22;;;;;;;16.85;21.76;94466.53;4871255;29;20028;-75
2021/03/05 11:57:40;;;;;;;5.45;4.68;;;;;;;17.36;24.46;94453.72;4853910;29;20029;-74
2021/03/05 12:00:06;;;;;;;6.93;4.20;;;;;;;18.25;22.93;94459.72;4847077;29;20098;-76
2021/03/05 12:02:32;;;;;;;5.30;3.75;;;;;;;17.61;21.25;94453.56;4841541;29;20045;-76
2021/03/05 12:04:57;;;;;;;15.23;4.40;;;;;;;18.48;22.99;94456.25;4858424;29;20052;-75
2021/03/05 12:07:23;;;;;;;6.72;3.90;;;;;;;18.54;21.96;94450.13;4857494;29;20044;-75
2021/03/05 12:09:48;;;;;;;6.75;4.25;;;;;;;18.02;22.36;94426.44;4841148;29;20334;-76
2021/03/05 12:12:14;;;;;;;4.75;3.97;;;;;;;18.42;23.06;94453.53;4857072;29;20037;-75
2021/03/05 12:14:39;;;;;;;7.40;4.30;;;;;;;18.55;21.79;94444.66;4842670;29;20060;-75
2021/03/05 12:17:05;;;;;;;7.38;4.65;;;;;;;18.10;20.93;94438.41;4841781;29;20131;-76
2021/03/05 12:19:30;;;;;;;5.13;3.95;;;;;;;18.61;22.28;94450.78;4873722;29;20041;-76
2021/03/05 12:21:56;;;;;;;10.18;4.53;;;;;;;18.83;21.73;94442.03;4857496;29;20029;-77
2021/03/05 12:24:22;;;;;;;6.90;4.40;;;;;;;19.14;21.58;94442.59;4827361;29;20025;-76
2021/03/05 12:26:47;;;;;;;4.90;3.92;;;;;;;18.76;22.40;94444.00;4857632;29;20040;-76
2021/03/05 12:29:12;;;;;;;6.43;4.22;;;;;;;18.55;21.36;94449.09;4866755;29;20423;-74
2021/03/05 12:31:38;;;;;;;4.32;3.85;;;;;;;17.97;22.45;94446.53;4826952;29;20021;-76
2021/03/05 12:34:04;;;;;;;3.60;3.30;;;;;;;17.96;22.33;94435.22;4856646;29;20017;-75
2021/03/05 12:36:30;;;;;;;4.32;3.85;;;;;;;18.00;21.13;94428.50;4843462;29;20041;-76
2021/03/05 12:38:55;;;;;;;6.82;3.70;;;;;;;17.99;19.74;94431.34;4856799;29;20542;-77
2021/03/05 12:41:21;;;;;;;4.50;3.47;;;;;;;17.12;20.06;94423.25;4827185;29;20447;-76
2021/03/05 12:43:46;;;;;;;3.40;3.10;;;;;;;17.98;20.68;94424.53;4842820;29;20061;-76
2021/03/05 12:46:12;;;;;;;4.05;3.65;;;;;;;18.18;21.73;94431.00;4841583;29;20112;-76
2021/03/05 12:48:37;;;;;;;4.30;3.03;;;;;;;18.52;20.57;94426.75;4858175;29;20483;-76
2021/03/05 12:51:03;;;;;;;5.07;3.05;;;;;;;18.39;19.88;94413.88;4855821;29;20025;-77
2021/03/05 12:53:29;;;;;;;5.18;3.00;;;;;;;18.63;22.26;94406.75;4875291;29;20033;-76
2021/03/05 12:55:55;;;;;;;4.05;3.20;;;;;;;18.61;20.73;94421.94;4887226;29;20521;-77
2021/03/05 12:58:20;;;;;;;7.30;3.90;;;;;;;18.03;21.24;94407.09;4874296;29;20041;-76
2021/03/05 13:00:45;;;;;;;5.20;3.30;;;;;;;17.70;21.14;94391.94;4853356;29;20558;-77
2021/03/05 13:03:11;;;;;;;4.63;3.25;;;;;;;18.28;21.33;94410.22;4841317;29;20060;-78
2021/03/05 13:05:36;;;;;;;3.58;3.28;;;;;;;17.97;21.22;94400.16;4857742;29;20029;-77
2021/03/05 13:08:02;;;;;;;4.55;3.60;;;;;;;18.27;19.89;94398.16;4873370;29;20033;-78
2021/03/05 13:10:28;;;;;;;5.95;3.30;;;;;;;17.99;19.45;94390.22;4857906;29;20093;-79
2021/03/05 13:12:53;;;;;;;3.65;3.30;;;;;;;17.21;20.42;94392.34;4871421;29;20029;-79
2021/03/05 13:15:19;;;;;;;5.70;3.35;;;;;;;17.36;19.24;94388.28;4860898;29;20049;-78
2021/03/05 13:17:44;;;;;;;4.22;2.78;;;;;;;17.80;19.60;94400.03;4825574;29;20028;-78
2021/03/05 13:20:10;;;;;;;3.42;2.70;;;;;;;17.15;19.67;94396.66;4874643;29;20033;-78
2021/03/05 13:22:35;;;;;;;4.45;3.83;;;;;;;17.93;19.97;94393.75;4856078;29;20028;-77
2021/03/05 13:25:01;;;;;;;3.55;2.63;;;;;;;17.99;19.52;94386.81;4873242;29;20407;-77
2021/03/05 13:27:26;;;;;;;4.40;3.40;;;;;;;18.50;19.37;94396.50;4873385;29;20041;-76
2021/03/05 13:29:52;;;;;;;6.20;3.00;;;;;;;18.12;19.80;94389.19;4855713;29;20096;-77
2021/03/05 13:32:17;;;;;;;3.80;2.97;;;;;;;17.86;20.19;94380.78;4841505;29;20053;-76
2021/03/05 13:34:43;;;;;;;5.30;2.80;;;;;;;18.43;20.42;94386.13;4840505;29;20044;-77
2021/03/05 13:37:08;;;;;;;4.85;2.70;;;;;;;18.43;19.94;94381.69;4858174;29;20198;-77
2021/03/05 13:39:34;;;;;;;3.55;3.25;;;;;;;18.52;21.77;94389.22;4855769;29;20487;-77
2021/03/05 13:41:59;;;;;;;4.72;2.80;;;;;;;18.72;20.83;94393.00;4857401;29;20415;-77
2021/03/05 13:44:25;;;;;;;4.78;2.70;;;;;;;18.64;20.17;94392.59;4873215;29;20029;-76
2021/03/05 13:46:50;;;;;;;3.40;3.10;;;;;;;18.41;18.69;94375.88;4872616;29;20533;-76
2021/03/05 13:49:16;;;;;;;6.22;3.00;;;;;;;18.62;20.82;94387.56;4873193;29;20407;-77
2021/03/05 13:51:41;;;;;;;4.68;3.58;;;;;;;18.48;19.31;94381.00;4871825;29;20036;-77
2021/03/05 13:54:07;;;;;;;2.85;2.55;;;;;;;18.73;19.75;94380.69;4856989;29;20028;-77
2021/03/05 13:56:32;;;;;;;5.47;2.55;;;;;;;18.56;20.86;94382.50;4870048;29;20051;-77
2021/03/05 13:58:58;;;;;;;3.78;3.20;;;;;;;18.01;19.86;94372.47;4873228;29;20398;-77
2021/03/05 14:01:23;;;;;;;4.55;2.75;;;;;;;18.36;20.00;94381.03;4870822;29;20029;-77
2021/03/05 14:03:49;;;;;;;4.93;2.47;;;;;;;17.90;18.42;94370.63;4856550;29;20032;-77
2021/03/05 14:06:14;;;;;;;5.07;2.45;;;;;;;17.75;20.19;94378.19;4872394;29;20041;-76
2021/03/05 14:08:39;;;;;;;5.00;2.88;;;;;;;17.98;20.30;94379.97;4854975;29;20069;-76
2021/03/05 14:11:05;;;;;;;4.50;3.08;;;;;;;17.92;20.69;94374.63;4873794;29;20033;-77
2021/03/05 14:13:30;;;;;;;4.43;2.70;;;;;;;17.97;20.76;94379.19;4839110;29;20033;-77
2021/03/05 14:15:56;;;;;;;7.28;3.08;;;;;;;18.23;19.76;94376.06;4873976;29;20033;-77
2021/03/05 14:18:21;;;;;;;3.05;2.60;;;;;;;18.21;18.52;94372.84;4871568;29;20025;-77
2021/03/05 14:20:47;;;;;;;4.03;3.00;;;;;;;17.43;18.69;94367.22;4873448;29;20033;-77
2021/03/05 14:23:15;;;;;;;3.58;2.30;;;;;;;17.07;18.26;94357.72;4855580;29;20523;-78
2021/03/05 14:25:41;;;;;;;3.60;2.60;;;;;;;17.28;18.79;94365.03;4855365;29;20479;-78
2021/03/05 14:28:07;;;;;;;4.50;3.00;;;;;;;17.00;18.55;94356.22;4873931;29;20044;-78
2021/03/05 14:30:33;;;;;;;3.75;2.83;;;;;;;17.29;19.40;94353.53;4854155;29;20037;-78
2021/03/05 14:32:58;;;;;;;3.97;2.70;;;;;;;17.31;19.01;94364.56;4872702;29;20025;-79
2021/03/05 14:35:27;;;;;;;3.75;2.72;;;;;;;17.38;18.54;94354.81;4868733;29;20029;-78
2021/03/05 14:37:52;;;;;;;5.18;2.90;;;;;;;17.71;18.63;94362.13;4872444;29;20441;-78
2021/03/05 14:40:18;;;;;;;5.22;3.00;;;;;;;18.15;18.82;94367.75;4871065;29;20033;-78
2021/03/05 14:42:43;;;;;;;4.97;3.00;;;;;;;17.93;19.67;94357.06;4872640;29;20933;-78
2021/03/05 14:45:10;;;;;;;8.82;3.40;;;;;;;17.04;18.73;94355.56;4856353;29;20040;-78
2021/03/05 14:47:35;;;;;;;5.47;3.20;;;;;;;17.25;19.51;94365.47;4854334;29;20081;-78
2021/03/05 14:50:01;;;;;;;6.97;3.20;;;;;;;17.70;21.22;94368.38;4856932;29;20056;-78
2021/03/05 14:52:26;;;;;;;3.22;2.92;;;;;;;17.48;20.82;94359.47;4871133;29;20033;-78
2021/03/05 14:54:52;;;;;;;5.03;3.15;;;;;;;17.75;20.90;94367.69;4841015;29;20514;-77
2021/03/05 14:57:17;;;;;;;5.82;2.80;;;;;;;17.58;20.70;94362.34;4855051;29;20025;-77
2021/03/05 14:59:43;;;;;;;3.28;2.80;;;;;;;17.17;20.03;94362.41;4856127;29;20498;-78
2021/03/05 15:02:08;;;;;;;5.22;4.10;;;;;;;17.32;21.30;94365.38;4852692;29;20520;-77
2021/03/05 15:04:34;;;;;;;3.83;3.38;;;;;;;17.46;21.13;94371.19;4851644;29;20105;-77
2021/03/05 15:06:59;;;;;;;4.55;2.97;;;;;;;17.36;21.54;94379.63;4853599;29;20065;-77
2021/03/05 15:09:24;;;;;;;7.93;3.72;;;;;;;17.00;22.57;94383.19;4850925;29;20025;-77
2021/03/05 15:11:50;;;;;;;4.18;2.83;;;;;;;16.88;23.66;94381.56;4853060;29;20025;-77
2021/03/05 15:14:15;;;;;;;3.95;3.60;;;;;;;16.83;23.85;94384.84;4836000;29;20600;-77
2021/03/05 15:16:41;;;;;;;3.35;2.92;;;;;;;16.76;23.37;94386.78;4853224;29;20066;-77
2021/03/05 15:19:06;;;;;;;3.60;3.30;;;;;;;16.70;24.40;94390.25;4853646;29;20033;-76
2021/03/05 15:21:32;;;;;;;3.83;3.35;;;;;;;16.70;24.67;94388.44;4852118;29;20534;-78
2021/03/05 15:23:58;;;;;;;5.18;4.13;;;;;;;16.69;23.04;94386.06;4854134;29;20099;-77
2021/03/05 15:26:23;;;;;;;3.85;3.22;;;;;;;16.73;22.95;94384.56;4850453;29;20487;-78
2021/03/05 15:28:49;;;;;;;4.78;3.35;;;;;;;16.82;22.36;94384.03;4836730;29;20037;-77
2021/03/05 15:31:14;;;;;;;3.70;3.20;;;;;;;16.94;22.02;94396.38;4866293;29;20034;-78
2021/03/05 15:33:40;;;;;;;6.72;3.22;;;;;;;16.92;22.39;94391.34;4853067;29;20041;-79
2021/03/05 15:36:06;;;;;;;3.85;3.20;;;;;;;16.79;22.48;94394.19;4835329;29;20046;-79
2021/03/05 15:38:31;;;;;;;4.47;3.53;;;;;;;16.67;23.10;94399.34;4853006;29;20570;-78
2021/03/05 15:40:56;;;;;;;3.65;3.28;;;;;;;16.51;23.50;94391.28;4853116;29;20034;-78
2021/03/05 15:43:22;;;;;;;6.95;3.90;;;;;;;16.32;23.68;94399.16;4847419;29;20475;-78
2021/03/05 15:45:47;;;;;;;5.18;3.45;;;;;;;16.35;24.06;94403.94;4858260;29;20477;-79
2021/03/05 15:48:16;;;;;;;8.80;3.50;;;;;;;16.35;24.00;94403.16;4868520;29;20552;-79
2021/03/05 15:50:42;;;;;;;7.53;3.38;;;;;;;16.32;24.35;94407.00;4854341;29;20030;-79
2021/03/05 15:53:07;;;;;;;9.55;5.40;;;;;;;16.07;24.61;94413.31;4837756;29;20030;-79
2021/03/05 15:55:33;;;;;;;24.80;10.05;;;;;;;15.69;25.28;94416.94;4855150;29;20087;-79
2021/03/05 15:57:58;;;;;;;25.58;13.63;;;;;;;15.24;28.10;94420.69;4850913;29;20029;-79
2021/03/05 16:00:24;;;;;;;7.55;4.70;;;;;;;14.73;28.91;94419.00;4855886;29;20499;-78
2021/03/05 16:02:49;;;;;;;4.80;3.95;;;;;;;14.49;29.18;94421.53;4851253;29;20133;-77
2021/03/05 16:05:15;;;;;;;8.65;6.47;;;;;;;14.10;30.91;94425.03;4818212;29;20034;-79
2021/03/05 16:07:40;;;;;;;9.90;6.95;;;;;;;13.73;31.94;94423.94;4837021;29;20413;-81
2021/03/05 16:10:07;;;;;;;7.35;4.90;;;;;;;13.50;30.59;94432.19;4880520;29;20033;-80
2021/03/05 16:12:33;;;;;;;6.25;5.65;;;;;;;13.18;32.41;94428.59;4836608;29;20568;-78
2021/03/05 16:14:59;;;;;;;6.85;6.25;;;;;;;12.88;33.92;94432.50;4831279;29;20057;-79
2021/03/05 16:17:24;;;;;;;9.10;5.72;;;;;;;12.74;34.74;94441.28;4819286;29;20501;-78
2021/03/05 16:19:50;;;;;;;15.85;6.18;;;;;;;12.34;35.92;94434.34;4803024;29;20034;-79
2021/03/05 16:22:15;;;;;;;9.90;5.60;;;;;;;12.09;36.08;94442.66;4817678;29;20545;-78
2021/03/05 16:24:41;;;;;;;10.63;6.60;;;;;;;11.86;37.03;94449.91;4832126;29;20038;-80
2021/03/05 16:27:06;;;;;;;13.02;7.95;;;;;;;11.64;36.83;94443.16;4830335;29;20116;-78
2021/03/05 16:29:32;;;;;;;8.55;7.03;;;;;;;11.43;37.24;94445.81;4853423;29;20578;-80
2021/03/05 16:31:58;;;;;;;7.38;6.55;;;;;;;11.48;36.76;94446.03;4849371;29;20030;-80
2021/03/05 16:34:25;;;;;;;14.80;5.72;;;;;;;11.62;37.25;94451.09;4835387;29;20094;-79
2021/03/05 16:36:50;;;;;;;10.05;7.07;;;;;;;11.35;37.71;94459.69;4817595;29;20124;-80
2021/03/05 16:39:16;;;;;;;40.72;24.92;;;;;;;10.95;38.82;94457.72;4835651;29;20045;-80
2021/03/05 16:41:43;;;;;;;63.63;36.58;;;;;;;10.72;38.65;94468.28;4836209;29;20034;-81
2021/03/05 16:44:09;;;;;;;36.90;20.23;;;;;;;10.58;37.90;94466.53;4851343;29;20086;-80
2021/03/05 16:46:36;;;;;;;15.20;12.90;;;;;;;10.24;39.39;94467.13;4820579;29;20080;-81
2021/03/05 16:49:01;;;;;;;36.60;15.18;;;;;;;10.04;39.93;94464.28;4834525;29;20504;-80
2021/03/05 16:51:27;;;;;;;16.75;13.38;;;;;;;9.86;40.74;94471.56;4836096;29;20037;-79
2021/03/05 16:53:52;;;;;;;49.35;29.55;;;;;;;9.83;40.07;94481.47;4818986;29;20033;-80
2021/03/05 16:56:18;;;;;;;111.53;50.53;;;;;;;9.87;39.87;94472.38;4821046;29;20045;-80
2021/03/05 16:58:43;;;;;;;54.00;37.78;;;;;;;9.90;38.97;94484.97;4834426;29;20041;-79
2021/03/05 17:01:08;;;;;;;44.95;35.97;;;;;;;9.84;38.46;94477.91;4835113;29;20034;-80
2021/03/05 17:03:34;;;;;;;21.08;18.88;;;;;;;9.86;38.44;94494.03;4849274;29;20060;-80
2021/03/05 17:06:00;;;;;;;8.45;5.57;;;;;;;9.60;38.90;94489.28;4854518;29;20038;-81
2021/03/05 17:08:25;;;;;;;38.72;20.55;;;;;;;10.05;36.67;94494.31;4850170;29;20042;-79
2021/03/05 17:10:51;;;;;;;43.85;25.00;;;;;;;10.00;36.46;94504.41;4852299;29;20101;-80
2021/03/05 17:13:16;;;;;;;17.92;12.50;;;;;;;10.37;34.79;94500.16;4842728;29;20038;-79
2021/03/05 17:15:42;;;;;;;24.13;12.45;;;;;;;10.64;33.19;94506.44;4830081;29;20037;-80
2021/03/05 17:18:07;;;;;;;18.15;11.75;;;;;;;10.66;32.43;94497.47;4851751;29;20041;-80
2021/03/05 17:20:33;;;;;;;11.05;9.75;;;;;;;10.49;33.72;94504.69;4819548;29;20041;-80
2021/03/05 17:22:59;;;;;;;12.48;7.65;;;;;;;10.32;34.32;94507.63;4851353;29;20200;-77
2021/03/05 17:25:24;;;;;;;12.15;7.65;;;;;;;10.25;34.50;94514.50;4815837;29;20045;-78
2021/03/05 17:27:50;;;;;;;13.52;7.15;;;;;;;10.11;34.80;94515.31;4865505;29;20033;-79
2021/03/05 17:30:15;;;;;;;12.45;5.80;;;;;;;9.89;35.41;94520.34;4853301;29;20038;-80
2021/03/05 17:32:41;;;;;;;6.05;5.22;;;;;;;9.89;34.61;94506.63;4852589;29;20025;-79
2021/03/05 17:35:08;;;;;;;8.88;5.53;;;;;;;10.04;33.88;94516.03;4820841;29;20053;-79
2021/03/05 17:37:34;;;;;;;9.85;5.10;;;;;;;10.27;33.21;94521.13;4853425;29;20029;-80